Time;durP1;ratioP1;P1;durP2;ratioP2;P2;SDS_P1;SDS_P2;PMS_P1;PMS_P2;Temp;Humidity;BMP_temperature;BMP_pressure;BME280_temperature;BME280_humidity;BME280_pressure;Samples;Min_cycle;Max_cycle;Signal;HPM_P1;HPM_P2
2023/01/29 00:01:29;;;;;;;23.33;12.35;;;3.90;99.90;;;;;;5050423;28;20033;-68
2023/01/29 00:03:55;;;;;;;24.95;12.48;;;3.90;99.90;;;;;;5051181;28;20067;-68
2023/01/29 00:06:22;;;;;;;23.70;12.57;;;3.90;99.90;;;;;;5052165;28;20037;-68
2023/01/29 00:08:48;;;;;;;25.30;12.45;;;3.90;99.90;;;;;;5050187;28;20055;-68
2023/01/29 00:11:15;;;;;;;25.40;12.38;;;3.90;99.90;;;;;;5050429;28;20665;-68
2023/01/29 00:13:41;;;;;;;24.17;13.00;;;3.90;99.90;;;;;;5051442;28;20052;-68
2023/01/29 00:16:07;;;;;;;21.65;11.77;;;3.80;99.90;;;;;;5051399;28;20040;-68
2023/01/29 00:18:36;;;;;;;22.27;12.20;;;3.70;99.90;;;;;;5051661;28;20059;-68
2023/01/29 00:21:02;;;;;;;22.65;12.50;;;3.70;99.90;;;;;;5050166;28;20124;-68
2023/01/29 00:23:27;;;;;;;21.63;11.18;;;3.70;99.90;;;;;;5051448;28;20171;-68
2023/01/29 00:25:53;;;;;;;19.45;11.30;;;3.80;99.90;;;;;;5050546;28;20059;-68
2023/01/29 00:28:18;;;;;;;23.80;12.10;;;3.80;99.90;;;;;;5051256;28;20041;-68
2023/01/29 00:30:44;;;;;;;25.27;13.02;;;3.90;99.90;;;;;;5049547;28;20739;-67
2023/01/29 00:33:10;;;;;;;20.42;12.02;;;3.80;99.90;;;;;;5048081;28;20045;-68
2023/01/29 00:35:39;;;;;;;26.80;11.82;;;3.90;99.90;;;;;;5049133;28;20401;-68
2023/01/29 00:38:05;;;;;;;25.00;12.10;;;3.90;99.90;;;;;;5050103;28;20048;-68
2023/01/29 00:44:56;;;;;;;20.40;12.18;;;3.90;99.90;;;;;;5051601;28;20041;-68
2023/01/29 00:46:00;;;;;;;20.02;11.55;;;3.90;99.90;;;;;;5050352;28;20040;-67
2023/01/29 00:48:25;;;;;;;18.52;10.93;;;4.00;99.90;;;;;;5051012;28;20354;-67
2023/01/29 00:50:51;;;;;;;19.05;12.07;;;4.00;99.90;;;;;;5049809;28;20055;-68
2023/01/29 00:53:17;;;;;;;20.92;11.63;;;4.00;99.90;;;;;;5051142;28;20452;-68
2023/01/29 00:55:43;;;;;;;20.38;10.95;;;4.00;99.90;;;;;;5050262;28;20043;-68
2023/01/29 00:58:09;;;;;;;23.92;12.27;;;4.00;99.90;;;;;;5049406;28;20048;-68
2023/01/29 01:00:35;;;;;;;20.27;11.00;;;4.00;99.90;;;;;;5049960;28;20105;-67
2023/01/29 01:03:06;;;;;;;21.52;10.98;;;4.00;99.90;;;;;;5050980;28;20485;-67
2023/01/29 01:05:32;;;;;;;20.70;10.68;;;4.00;99.90;;;;;;5050160;28;20075;-67
2023/01/29 01:07:58;;;;;;;20.98;11.15;;;4.00;99.90;;;;;;5049561;28;20098;-67
2023/01/29 01:10:30;;;;;;;20.27;10.77;;;4.00;99.90;;;;;;5049647;28;20040;-68
2023/01/29 01:12:57;;;;;;;21.13;11.60;;;4.00;99.90;;;;;;5050966;28;20037;-68
2023/01/29 01:15:27;;;;;;;21.25;11.18;;;4.00;99.90;;;;;;5048546;28;20306;-68
2023/01/29 01:17:54;;;;;;;21.67;11.73;;;4.00;99.90;;;;;;5050975;28;20095;-68
2023/01/29 01:20:20;;;;;;;21.13;10.60;;;4.10;99.90;;;;;;5051123;28;20041;-68
2023/01/29 01:22:46;;;;;;;21.85;11.77;;;4.00;99.90;;;;;;5051023;28;20029;-68
2023/01/29 01:25:11;;;;;;;20.13;11.45;;;4.10;99.90;;;;;;5049957;28;20040;-68
2023/01/29 01:27:40;;;;;;;22.75;12.10;;;4.10;99.90;;;;;;5049479;28;20049;-68
2023/01/29 01:30:08;;;;;;;19.85;11.85;;;4.10;99.90;;;;;;5050729;28;20044;-68
2023/01/29 01:32:33;;;;;;;22.90;11.77;;;4.10;99.90;;;;;;5050364;28;20051;-68
2023/01/29 01:34:59;;;;;;;20.50;11.15;;;4.00;99.90;;;;;;5050016;28;20485;-68
2023/01/29 01:37:24;;;;;;;23.25;11.55;;;4.00;99.90;;;;;;5050491;28;20041;-68
2023/01/29 01:39:50;;;;;;;22.13;10.55;;;4.10;99.90;;;;;;5049278;28;20041;-68
2023/01/29 01:42:15;;;;;;;20.63;11.02;;;4.00;99.90;;;;;;5049383;28;20041;-68
2023/01/29 01:45:16;;;;;;;22.75;11.40;;;3.90;99.90;;;;;;5049955;28;20509;-68
2023/01/29 01:48:07;;;;;;;22.05;11.80;;;4.10;99.90;;;;;;5050096;28;20059;-68
2023/01/29 01:50:52;;;;;;;19.70;11.20;;;4.00;99.90;;;;;;5050530;28;20045;-68
2023/01/29 01:53:37;;;;;;;23.75;11.15;;;4.00;99.90;;;;;;5050347;28;20037;-68
2023/01/29 01:56:08;;;;;;;22.58;12.07;;;4.10;99.90;;;;;;5049933;28;20448;-67
2023/01/29 01:58:42;;;;;;;19.52;11.45;;;3.90;99.90;;;;;;5048937;28;20048;-67
2023/01/29 02:01:08;;;;;;;20.17;10.85;;;4.00;99.90;;;;;;5050451;28;20045;-67
2023/01/29 02:09:33;;;;;;;20.25;11.55;;;4.00;99.90;;;;;;5050475;28;20041;-67
2023/01/29 02:11:59;;;;;;;20.77;10.85;;;4.00;99.90;;;;;;5051374;28;20041;-67
2023/01/29 02:14:25;;;;;;;23.13;11.75;;;4.00;99.90;;;;;;5051764;28;20047;-67
2023/01/29 02:16:51;;;;;;;21.55;11.18;;;4.00;99.90;;;;;;5053597;28;20113;-67
2023/01/29 02:19:47;;;;;;;19.70;10.98;;;4.10;99.90;;;;;;5035626;28;20449;-67
2023/01/29 02:23:02;;;;;;;23.27;11.30;;;4.10;99.90;;;;;;5053722;28;20040;-67
2023/01/29 02:26:17;;;;;;;23.73;11.40;;;4.00;99.90;;;;;;5052742;28;20045;-67
2023/01/29 02:29:21;;;;;;;19.30;10.98;;;4.00;99.90;;;;;;5053670;28;20116;-67
2023/01/29 02:32:13;;;;;;;20.85;11.30;;;4.00;99.90;;;;;;5053463;28;20096;-67
2023/01/29 02:38:16;;;;;;;21.10;11.52;;;4.00;99.90;;;;;;5053204;28;20045;-67
2023/01/29 02:40:47;;;;;;;21.75;11.82;;;3.90;99.90;;;;;;5022574;28;20056;-67
2023/01/29 02:43:17;;;;;;;22.35;11.43;;;3.90;99.90;;;;;;5053323;28;20067;-68
2023/01/29 02:46:03;;;;;;;21.23;11.63;;;4.00;99.90;;;;;;5051273;28;20119;-68
2023/01/29 02:48:39;;;;;;;18.73;10.85;;;4.00;99.90;;;;;;5053135;28;20051;-68
2023/01/29 02:51:16;;;;;;;21.15;11.25;;;4.00;99.90;;;;;;5053500;28;20036;-67
2023/01/29 02:54:14;;;;;;;25.45;11.82;;;4.00;99.90;;;;;;5053006;28;20547;-68
2023/01/29 02:56:52;;;;;;;20.25;10.95;;;4.00;99.90;;;;;;4998396;28;20054;-68
2023/01/29 02:59:23;;;;;;;20.05;11.80;;;4.10;99.90;;;;;;5051720;28;20037;-68
2023/01/29 03:01:59;;;;;;;22.65;12.20;;;4.00;99.90;;;;;;5051729;28;20041;-68
2023/01/29 03:04:32;;;;;;;22.98;11.90;;;3.90;99.90;;;;;;5052349;28;20037;-68
2023/01/29 03:07:02;;;;;;;21.48;10.75;;;4.00;99.90;;;;;;5052800;28;20033;-68
2023/01/29 03:09:41;;;;;;;20.17;10.55;;;4.00;99.90;;;;;;5052955;28;20083;-68
2023/01/29 03:12:32;;;;;;;20.85;11.20;;;4.00;99.90;;;;;;5053063;28;20052;-68
2023/01/29 03:15:13;;;;;;;26.92;12.60;;;4.00;99.90;;;;;;5052159;28;20117;-68
2023/01/29 03:17:49;;;;;;;21.60;11.77;;;4.00;99.90;;;;;;5052981;28;20049;-68
2023/01/29 03:20:20;;;;;;;20.33;11.32;;;4.00;99.90;;;;;;5052902;28;20041;-68
2023/01/29 03:22:55;;;;;;;21.70;11.38;;;4.00;99.90;;;;;;5052697;28;20045;-68
2023/01/29 03:33:46;;;;;;;23.77;12.35;;;3.80;99.90;;;;;;5052474;28;20049;-67
2023/01/29 03:36:21;;;;;;;22.83;12.43;;;3.80;99.90;;;;;;5052250;28;20120;-67
2023/01/29 03:38:47;;;;;;;19.65;11.75;;;3.80;99.90;;;;;;5052479;28;20433;-68
2023/01/29 03:41:24;;;;;;;19.67;11.70;;;3.80;99.90;;;;;;5051976;28;20045;-68
2023/01/29 03:44:00;;;;;;;23.48;12.98;;;3.80;99.90;;;;;;5051451;28;20029;-67
2023/01/29 03:46:45;;;;;;;19.08;12.05;;;3.90;99.90;;;;;;5034308;28;20040;-67
2023/01/29 03:49:38;;;;;;;24.25;13.63;;;3.90;99.90;;;;;;5051977;28;20044;-68
2023/01/29 03:52:17;;;;;;;22.90;11.95;;;3.90;99.90;;;;;;5023229;28;20127;-68
2023/01/29 03:55:11;;;;;;;20.30;12.57;;;3.90;99.90;;;;;;5051600;28;20398;-68
2023/01/29 03:57:57;;;;;;;22.88;12.55;;;4.00;99.90;;;;;;5051953;28;20120;-68
2023/01/29 04:00:28;;;;;;;22.15;13.15;;;3.90;99.90;;;;;;5050619;28;20047;-68
2023/01/29 04:03:19;;;;;;;23.38;12.57;;;3.90;99.90;;;;;;5051693;28;20044;-68
2023/01/29 04:06:10;;;;;;;22.55;13.63;;;4.00;99.90;;;;;;5050704;28;20068;-68
2023/01/29 04:08:45;;;;;;;24.85;12.77;;;4.00;99.90;;;;;;5050340;28;20041;-68
2023/01/29 04:11:16;;;;;;;23.80;13.23;;;4.00;99.90;;;;;;5051779;28;20121;-68
2023/01/29 04:13:44;;;;;;;24.50;13.73;;;4.00;99.90;;;;;;5051202;28;20040;-68
2023/01/29 04:16:15;;;;;;;25.02;13.75;;;4.10;99.90;;;;;;5051707;28;20040;-67
2023/01/29 04:18:45;;;;;;;28.90;13.85;;;4.10;99.90;;;;;;5051656;28;20045;-67
2023/01/29 04:21:11;;;;;;;21.20;11.93;;;4.10;99.90;;;;;;5051606;28;20509;-67
2023/01/29 04:23:37;;;;;;;22.70;12.95;;;4.10;99.90;;;;;;5033623;28;20052;-67
2023/01/29 04:26:23;;;;;;;26.55;12.88;;;4.10;99.90;;;;;;5050635;28;20041;-67
2023/01/29 04:28:55;;;;;;;27.38;13.15;;;4.10;99.90;;;;;;5051317;28;20086;-67
2023/01/29 04:31:27;;;;;;;25.23;13.00;;;4.10;99.90;;;;;;5051083;28;20497;-67
2023/01/29 04:34:34;;;;;;;25.30;14.57;;;4.10;99.90;;;;;;5050836;28;20052;-67
2023/01/29 04:37:08;;;;;;;24.30;13.45;;;4.20;99.90;;;;;;4989166;28;20057;-67
2023/01/29 04:39:47;;;;;;;25.42;14.20;;;4.20;99.90;;;;;;4989408;28;20105;-67
2023/01/29 04:42:28;;;;;;;25.90;13.65;;;4.20;99.90;;;;;;4973030;28;20077;-67
2023/01/29 04:45:12;;;;;;;29.05;15.02;;;4.20;99.90;;;;;;4974181;28;20053;-67
2023/01/29 04:47:59;;;;;;;28.70;15.30;;;4.20;99.90;;;;;;4973002;28;20077;-67
2023/01/29 04:50:31;;;;;;;29.92;14.65;;;4.20;99.90;;;;;;4973063;28;20081;-67
2023/01/29 04:53:12;;;;;;;24.92;14.10;;;4.20;99.90;;;;;;4989055;28;20077;-67
2023/01/29 04:55:57;;;;;;;25.10;14.40;;;4.20;99.90;;;;;;4988435;28;20086;-67
2023/01/29 04:58:43;;;;;;;23.83;13.85;;;4.20;99.90;;;;;;4972691;28;20089;-67
2023/01/29 05:01:15;;;;;;;26.35;14.23;;;4.20;99.90;;;;;;4972866;28;20050;-67
2023/01/29 05:03:45;;;;;;;26.17;14.93;;;4.30;99.90;;;;;;4988597;28;20058;-68
2023/01/29 05:06:12;;;;;;;23.52;14.05;;;4.30;99.90;;;;;;4989131;28;20042;-67
2023/01/29 05:08:39;;;;;;;24.58;14.25;;;4.30;99.90;;;;;;4988792;28;20100;-67
2023/01/29 05:11:05;;;;;;;24.08;14.38;;;4.30;99.90;;;;;;5024538;28;20053;-67
2023/01/29 05:13:35;;;;;;;25.15;14.38;;;4.30;99.90;;;;;;5050897;28;20052;-67
2023/01/29 05:16:12;;;;;;;25.42;14.55;;;4.30;99.90;;;;;;5050151;28;20052;-67
2023/01/29 05:18:37;;;;;;;22.80;14.00;;;4.30;99.90;;;;;;5049269;28;20053;-67
2023/01/29 05:21:06;;;;;;;26.23;14.82;;;4.30;99.90;;;;;;5050666;28;20055;-67
2023/01/29 05:23:32;;;;;;;25.27;14.25;;;4.30;99.90;;;;;;5050909;28;20037;-67
2023/01/29 05:25:58;;;;;;;27.45;13.88;;;4.30;99.90;;;;;;5049709;28;20041;-67
2023/01/29 05:28:23;;;;;;;24.88;14.48;;;4.30;99.90;;;;;;5050458;28;20402;-67
2023/01/29 05:30:52;;;;;;;25.10;14.95;;;4.30;99.90;;;;;;5050440;28;20041;-67
2023/01/29 05:33:21;;;;;;;24.25;14.73;;;4.30;99.90;;;;;;5050703;28;20068;-67
2023/01/29 05:35:47;;;;;;;26.75;15.32;;;4.30;99.90;;;;;;5049674;28;20038;-67
2023/01/29 05:38:14;;;;;;;24.88;14.52;;;4.30;99.90;;;;;;5050423;28;20036;-67
2023/01/29 05:40:40;;;;;;;23.05;15.00;;;4.30;99.90;;;;;;5049096;28;20099;-67
2023/01/29 05:43:17;;;;;;;31.67;15.73;;;4.30;99.90;;;;;;5048911;28;20045;-67
2023/01/29 05:45:57;;;;;;;24.33;13.90;;;4.30;99.90;;;;;;5067290;28;20032;-67
2023/01/29 05:48:24;;;;;;;24.83;14.20;;;4.40;99.90;;;;;;5074229;28;20615;-67
2023/01/29 05:50:49;;;;;;;29.17;14.30;;;4.30;99.90;;;;;;5074308;28;20047;-67
2023/01/29 05:53:15;;;;;;;26.45;14.80;;;4.30;99.90;;;;;;5074152;28;20040;-67
2023/01/29 05:55:45;;;;;;;25.60;14.98;;;4.40;99.90;;;;;;5073733;28;20357;-68
2023/01/29 05:58:11;;;;;;;25.40;14.75;;;4.40;99.90;;;;;;5072780;28;20093;-68
2023/01/29 06:00:37;;;;;;;24.65;15.25;;;4.30;99.90;;;;;;5074381;28;20041;-67
2023/01/29 06:03:03;;;;;;;26.80;16.17;;;4.40;99.90;;;;;;5074356;28;20440;-68
2023/01/29 06:05:28;;;;;;;25.52;14.90;;;4.40;99.90;;;;;;5073448;28;20048;-68
2023/01/29 06:07:54;;;;;;;24.77;14.93;;;4.40;99.90;;;;;;5072602;28;20408;-68
2023/01/29 06:10:20;;;;;;;23.88;15.18;;;4.30;99.90;;;;;;5074257;28;20081;-68
2023/01/29 06:12:45;;;;;;;24.45;14.52;;;4.30;99.90;;;;;;5073768;28;20044;-68
2023/01/29 06:15:14;;;;;;;27.35;15.35;;;4.40;99.90;;;;;;5071673;28;20040;-67
2023/01/29 06:17:40;;;;;;;25.35;15.48;;;4.30;99.90;;;;;;5073779;28;20511;-68
2023/01/29 06:20:06;;;;;;;27.90;15.70;;;4.30;99.90;;;;;;5073587;28;20086;-68
2023/01/29 06:22:32;;;;;;;25.70;15.45;;;4.30;99.90;;;;;;5073781;28;20521;-68
2023/01/29 06:24:58;;;;;;;28.55;16.02;;;4.30;99.90;;;;;;5072791;28;20079;-68
2023/01/29 06:27:26;;;;;;;26.00;14.73;;;4.30;99.90;;;;;;5073745;28;20040;-68
2023/01/29 06:29:52;;;;;;;27.10;15.85;;;4.30;99.90;;;;;;5073443;28;20489;-68
2023/01/29 06:32:17;;;;;;;29.13;16.33;;;4.30;99.90;;;;;;5073554;28;20086;-68
2023/01/29 06:34:43;;;;;;;27.33;15.95;;;4.20;99.90;;;;;;5072630;28;20099;-68
2023/01/29 06:37:08;;;;;;;25.73;15.50;;;4.20;99.90;;;;;;5073240;28;20040;-67
2023/01/29 06:39:34;;;;;;;27.30;15.55;;;4.20;99.90;;;;;;5073287;28;20076;-67
2023/01/29 06:41:59;;;;;;;29.73;15.65;;;4.20;99.90;;;;;;5073250;28;20447;-68
2023/01/29 06:44:25;;;;;;;28.55;14.70;;;4.20;99.90;;;;;;5072842;28;20071;-68
2023/01/29 06:46:51;;;;;;;27.42;15.52;;;4.20;99.90;;;;;;5073187;28;20070;-68
2023/01/29 06:49:16;;;;;;;30.80;16.05;;;4.20;99.90;;;;;;5073234;28;20405;-68
2023/01/29 06:51:42;;;;;;;29.17;15.50;;;4.20;99.90;;;;;;5072122;28;20036;-68
2023/01/29 06:54:09;;;;;;;26.75;15.48;;;4.10;99.90;;;;;;5072701;28;20039;-68
2023/01/29 06:56:34;;;;;;;26.08;15.55;;;4.20;99.90;;;;;;5073210;28;20040;-69
2023/01/29 06:59:00;;;;;;;30.05;15.85;;;4.10;99.90;;;;;;5070462;28;20436;-69
2023/01/29 07:01:26;;;;;;;26.90;16.05;;;4.20;99.90;;;;;;5055000;28;20466;-68
2023/01/29 07:03:51;;;;;;;28.27;15.55;;;4.10;99.90;;;;;;5071068;28;20040;-68
2023/01/29 07:06:18;;;;;;;31.48;17.08;;;4.00;99.90;;;;;;5071556;28;20040;-68
2023/01/29 07:08:44;;;;;;;31.08;17.15;;;4.00;99.90;;;;;;5072983;28;20659;-69
2023/01/29 07:11:09;;;;;;;24.88;15.60;;;4.10;99.90;;;;;;5071892;28;20052;-69
2023/01/29 07:13:35;;;;;;;32.53;16.88;;;4.10;99.90;;;;;;5072786;28;20051;-69
2023/01/29 07:16:02;;;;;;;29.40;15.68;;;4.10;99.90;;;;;;5072269;28;20075;-69
2023/01/29 07:18:28;;;;;;;28.88;16.00;;;4.20;99.90;;;;;;5071860;28;20046;-69
2023/01/29 07:20:54;;;;;;;26.45;15.90;;;4.20;99.90;;;;;;5072915;28;20493;-70
2023/01/29 07:23:20;;;;;;;28.38;16.33;;;4.10;99.90;;;;;;5071622;28;20540;-68
2023/01/29 07:25:48;;;;;;;34.53;16.48;;;4.10;99.90;;;;;;5070527;28;20040;-68
2023/01/29 07:28:15;;;;;;;27.25;16.17;;;4.10;99.90;;;;;;5072543;28;20094;-68
2023/01/29 07:30:41;;;;;;;27.77;16.40;;;4.00;99.90;;;;;;5072415;28;20127;-67
2023/01/29 07:33:08;;;;;;;29.65;16.42;;;4.00;99.90;;;;;;5072519;28;20119;-68
2023/01/29 07:35:41;;;;;;;27.55;15.43;;;4.00;99.90;;;;;;5071637;28;20044;-68
2023/01/29 07:38:09;;;;;;;27.55;15.93;;;4.00;99.90;;;;;;5070322;28;20054;-68
2023/01/29 07:40:35;;;;;;;31.35;17.63;;;4.10;99.90;;;;;;5067326;28;20044;-68
2023/01/29 07:43:03;;;;;;;29.83;15.15;;;4.10;99.90;;;;;;5044312;28;20044;-68
2023/01/29 07:45:30;;;;;;;26.73;15.80;;;4.10;99.90;;;;;;5060977;28;20036;-68
2023/01/29 07:47:56;;;;;;;27.10;16.38;;;4.10;99.90;;;;;;5062718;28;20357;-66
2023/01/29 07:50:23;;;;;;;28.05;16.52;;;4.10;99.90;;;;;;5060439;28;20628;-67
2023/01/29 07:52:49;;;;;;;24.10;15.20;;;4.00;99.90;;;;;;5072062;28;20044;-70
2023/01/29 07:55:14;;;;;;;29.25;16.20;;;4.00;99.90;;;;;;5069406;28;20047;-67
2023/01/29 07:57:40;;;;;;;31.13;17.13;;;4.10;99.90;;;;;;5071833;28;20532;-67
2023/01/29 08:00:06;;;;;;;28.83;15.70;;;4.00;99.90;;;;;;5071816;28;20048;-67
2023/01/29 08:02:32;;;;;;;28.85;16.38;;;4.10;99.90;;;;;;5071486;28;20127;-67
2023/01/29 08:04:57;;;;;;;32.38;16.38;;;4.10;99.90;;;;;;5071135;28;20115;-68
2023/01/29 08:07:23;;;;;;;29.60;15.00;;;4.10;99.90;;;;;;5071583;28;20523;-68
2023/01/29 08:09:49;;;;;;;26.75;14.63;;;4.10;99.90;;;;;;5071507;28;20138;-68
2023/01/29 08:12:15;;;;;;;30.48;17.40;;;4.10;99.90;;;;;;5071509;28;20040;-70
2023/01/29 08:14:40;;;;;;;27.92;15.68;;;4.10;99.90;;;;;;5070769;28;20037;-69
2023/01/29 08:17:06;;;;;;;30.33;16.60;;;4.10;99.90;;;;;;5071581;28;20037;-69
2023/01/29 08:19:32;;;;;;;26.80;15.38;;;4.10;99.90;;;;;;5071570;28;20117;-69
2023/01/29 08:21:57;;;;;;;30.27;16.35;;;4.10;99.90;;;;;;5071664;28;20075;-69
2023/01/29 08:24:23;;;;;;;32.10;17.35;;;4.20;99.90;;;;;;5070580;28;20098;-69
2023/01/29 08:26:49;;;;;;;31.45;16.15;;;4.20;99.90;;;;;;5071447;28;20032;-69
2023/01/29 08:29:14;;;;;;;31.48;17.00;;;4.10;99.90;;;;;;5071479;28;20036;-69
2023/01/29 08:31:40;;;;;;;30.35;16.42;;;4.10;99.90;;;;;;5069937;28;20053;-69
2023/01/29 08:34:06;;;;;;;27.73;16.23;;;4.20;99.90;;;;;;5069193;28;20488;-69
2023/01/29 08:36:31;;;;;;;34.20;16.60;;;4.20;99.90;;;;;;5071689;28;20516;-69
2023/01/29 08:38:57;;;;;;;32.70;15.95;;;4.20;99.90;;;;;;5070299;28;20048;-68
2023/01/29 08:41:22;;;;;;;29.55;15.70;;;4.20;99.90;;;;;;5071349;28;20128;-69
2023/01/29 08:43:48;;;;;;;27.70;15.98;;;4.20;99.90;;;;;;5070464;28;20040;-69
2023/01/29 08:46:13;;;;;;;30.48;16.02;;;4.20;99.90;;;;;;5071064;28;20036;-68
2023/01/29 08:48:39;;;;;;;30.65;17.30;;;4.20;99.90;;;;;;5071005;28;20036;-68
2023/01/29 08:51:05;;;;;;;30.55;15.95;;;4.30;99.90;;;;;;5070636;28;20040;-67
2023/01/29 08:53:31;;;;;;;33.80;16.02;;;4.20;99.90;;;;;;5060258;28;20045;-67
2023/01/29 08:55:57;;;;;;;28.98;15.50;;;4.20;99.90;;;;;;5064294;28;20527;-67
2023/01/29 08:58:22;;;;;;;29.80;16.38;;;4.20;99.90;;;;;;5069581;28;20119;-67
2023/01/29 09:00:48;;;;;;;28.25;15.60;;;4.10;99.90;;;;;;5069470;28;20040;-67
2023/01/29 09:03:13;;;;;;;29.48;15.57;;;4.20;99.90;;;;;;5070996;28;20497;-67
2023/01/29 09:05:40;;;;;;;34.65;17.13;;;4.10;99.90;;;;;;5068455;28;20051;-68
2023/01/29 09:08:07;;;;;;;31.83;16.42;;;4.10;99.90;;;;;;5069610;28;20500;-68
2023/01/29 09:10:34;;;;;;;29.50;16.70;;;4.20;99.90;;;;;;5070960;28;20040;-68
2023/01/29 09:12:59;;;;;;;28.08;16.33;;;4.20;99.90;;;;;;5069697;28;20055;-68
2023/01/29 09:15:25;;;;;;;30.23;16.52;;;4.20;99.90;;;;;;5070099;28;20036;-67
2023/01/29 09:17:51;;;;;;;34.70;17.55;;;4.20;99.90;;;;;;5070474;28;20443;-68
2023/01/29 09:20:17;;;;;;;29.33;16.67;;;4.20;99.90;;;;;;5069491;28;20036;-68
2023/01/29 09:22:42;;;;;;;28.88;16.00;;;4.20;99.90;;;;;;5073451;28;20443;-68
2023/01/29 09:25:09;;;;;;;32.25;16.60;;;4.20;99.90;;;;;;5074372;28;20041;-68
2023/01/29 09:27:35;;;;;;;30.83;16.90;;;4.20;99.90;;;;;;5073459;28;20036;-68
2023/01/29 09:30:01;;;;;;;26.52;15.60;;;4.20;99.90;;;;;;5074975;28;20032;-68
2023/01/29 09:32:29;;;;;;;31.65;16.08;;;4.20;99.90;;;;;;5074488;28;20128;-68
2023/01/29 09:34:55;;;;;;;27.92;16.83;;;4.20;99.90;;;;;;5074062;28;20509;-68
2023/01/29 09:37:22;;;;;;;31.08;16.42;;;4.30;99.90;;;;;;5074545;28;20040;-68
2023/01/29 09:39:48;;;;;;;30.42;17.67;;;4.30;99.90;;;;;;5074798;28;20094;-69
2023/01/29 09:42:21;;;;;;;33.10;17.50;;;4.40;99.90;;;;;;5073248;28;20227;-69
2023/01/29 09:45:05;;;;;;;31.17;16.88;;;4.30;99.90;;;;;;5073602;28;20036;-69
2023/01/29 09:47:34;;;;;;;31.33;16.98;;;4.40;99.90;;;;;;5073027;28;20083;-69
2023/01/29 09:50:12;;;;;;;30.67;16.00;;;4.50;99.90;;;;;;5074280;28;20087;-69
2023/01/29 09:52:57;;;;;;;28.50;17.02;;;4.40;99.90;;;;;;5074452;28;20090;-68
2023/01/29 09:55:31;;;;;;;34.40;16.83;;;4.40;99.90;;;;;;5073723;28;20168;-69
2023/01/29 09:58:37;;;;;;;29.13;16.83;;;4.50;99.90;;;;;;5074689;28;20111;-68
2023/01/29 10:01:26;;;;;;;31.67;17.42;;;4.50;99.90;;;;;;5073133;28;20056;-68
2023/01/29 10:04:13;;;;;;;30.45;17.13;;;4.50;99.90;;;;;;5072320;28;20408;-69
2023/01/29 10:07:16;;;;;;;36.85;17.02;;;4.50;99.90;;;;;;5074313;28;20033;-68
2023/01/29 10:10:00;;;;;;;27.60;16.67;;;4.60;99.90;;;;;;5073862;28;20041;-69
2023/01/29 10:12:48;;;;;;;28.77;17.02;;;4.60;99.90;;;;;;5073798;28;20093;-69
2023/01/29 10:15:25;;;;;;;29.38;16.40;;;4.70;99.90;;;;;;5073142;28;20036;-69
2023/01/29 10:18:02;;;;;;;31.65;17.13;;;4.70;99.90;;;;;;5073818;28;20051;-69
2023/01/29 10:21:00;;;;;;;27.85;17.02;;;4.70;99.90;;;;;;5073820;28;20114;-69
2023/01/29 10:23:29;;;;;;;25.98;14.82;;;4.70;99.90;;;;;;5073906;28;20086;-69
2023/01/29 10:25:55;;;;;;;30.40;17.02;;;4.60;99.90;;;;;;5073047;28;20060;-69
2023/01/29 10:28:48;;;;;;;30.52;17.50;;;4.70;99.90;;;;;;5073547;28;20038;-69
2023/01/29 10:31:26;;;;;;;;;;;4.70;99.90;;;;;;5073986;28;20045;-69
2023/01/29 10:34:10;;;;;;;26.70;15.65;;;4.70;99.90;;;;;;5071351;28;19938;-69
2023/01/29 10:36:41;;;;;;;31.13;16.90;;;4.70;99.90;;;;;;5073386;28;20032;-69
2023/01/29 10:39:21;;;;;;;28.33;16.27;;;4.80;99.90;;;;;;5073442;28;20048;-68
2023/01/29 10:42:04;;;;;;;28.65;16.23;;;4.80;99.90;;;;;;5073388;28;20048;-68
2023/01/29 10:45:07;;;;;;;28.00;16.45;;;4.90;99.90;;;;;;5072072;28;20065;-68
2023/01/29 10:47:33;;;;;;;;;;;4.90;99.90;;;;;;5056762;28;20044;-68
2023/01/29 10:50:04;;;;;;;29.02;16.45;;;4.90;99.90;;;;;;5053541;28;20300;-68
2023/01/29 10:53:03;;;;;;;29.23;16.77;;;4.90;99.90;;;;;;5053402;28;20048;-68
2023/01/29 10:55:29;;;;;;;29.85;16.90;;;5.10;99.90;;;;;;5060957;28;20052;-68
2023/01/29 10:58:28;;;;;;;30.15;17.00;;;5.00;99.90;;;;;;5060186;28;20490;-69
2023/01/29 11:00:54;;;;;;;27.88;16.80;;;5.00;99.90;;;;;;5063519;28;20489;-68
2023/01/29 11:03:25;;;;;;;34.80;17.27;;;5.00;99.90;;;;;;5061898;28;20048;-68
2023/01/29 11:06:01;;;;;;;28.67;16.42;;;5.10;99.90;;;;;;5061864;28;20033;-69
2023/01/29 11:08:39;;;;;;;28.90;16.27;;;5.00;99.90;;;;;;5061532;28;20041;-69
2023/01/29 11:11:12;;;;;;;30.83;16.40;;;5.00;99.90;;;;;;5059864;28;20041;-76
2023/01/29 11:13:52;;;;;;;30.20;17.00;;;5.10;99.90;;;;;;5060144;28;20115;-67
2023/01/29 11:16:17;;;;;;;32.83;17.92;;;5.10;99.90;;;;;;5063130;28;20037;-67
2023/01/29 11:18:58;;;;;;;32.40;17.50;;;5.10;99.90;;;;;;5061264;28;20439;-67
2023/01/29 11:21:25;;;;;;;34.53;17.88;;;5.10;99.90;;;;;;5058152;28;20750;-68
2023/01/29 11:24:15;;;;;;;32.28;18.42;;;5.10;99.90;;;;;;5052199;28;20039;-68
2023/01/29 11:26:42;;;;;;;29.00;16.45;;;5.20;99.90;;;;;;5054677;28;20122;-68
2023/01/29 11:29:26;;;;;;;29.83;17.20;;;5.10;99.90;;;;;;5060383;28;20508;-68
2023/01/29 11:31:52;;;;;;;27.67;16.40;;;5.10;99.90;;;;;;5057635;28;20084;-68
2023/01/29 11:34:21;;;;;;;30.27;16.88;;;5.10;99.90;;;;;;5051684;28;20044;-69
2023/01/29 11:36:57;;;;;;;35.60;16.77;;;5.10;99.90;;;;;;5051326;28;20487;-68
2023/01/29 11:39:24;;;;;;;29.27;17.00;;;5.20;99.90;;;;;;5052191;28;20036;-67
2023/01/29 11:42:02;;;;;;;32.72;16.70;;;5.20;99.90;;;;;;5050825;28;20110;-68
2023/01/29 11:44:40;;;;;;;32.45;17.70;;;5.20;99.90;;;;;;5050929;28;20036;-68
2023/01/29 11:47:11;;;;;;;33.15;18.05;;;5.20;99.90;;;;;;5052439;28;20112;-68
2023/01/29 11:49:39;;;;;;;29.48;16.65;;;5.20;99.90;;;;;;5052112;28;20048;-67
2023/01/29 11:52:07;;;;;;;30.83;17.77;;;5.20;99.90;;;;;;5052400;28;20397;-69
2023/01/29 11:54:43;;;;;;;28.42;16.13;;;5.20;99.90;;;;;;5051629;28;20045;-69
2023/01/29 11:57:23;;;;;;;32.33;17.38;;;5.20;99.90;;;;;;5051841;28;20048;-67
2023/01/29 11:59:51;;;;;;;38.47;17.38;;;5.40;99.90;;;;;;5051893;28;20033;-67
2023/01/29 12:02:25;;;;;;;30.98;17.00;;;5.30;99.90;;;;;;5051458;28;20493;-67
2023/01/29 12:04:53;;;;;;;32.08;17.77;;;5.30;99.90;;;;;;5050619;28;20032;-67
2023/01/29 12:07:19;;;;;;;34.28;17.15;;;5.30;99.90;;;;;;5051158;28;20585;-67
2023/01/29 12:09:54;;;;;;;30.42;17.38;;;5.20;99.90;;;;;;5051799;28;20402;-67
2023/01/29 12:12:27;;;;;;;33.20;16.98;;;5.20;99.90;;;;;;5051504;28;20049;-68
2023/01/29 12:15:23;;;;;;;34.55;17.65;;;5.30;99.90;;;;;;5051163;28;20402;-67
2023/01/29 12:18:02;;;;;;;31.90;17.02;;;5.20;99.90;;;;;;5033418;28;20044;-67
2023/01/29 12:20:39;;;;;;;30.50;17.52;;;5.20;99.90;;;;;;5050126;28;20570;-68
2023/01/29 12:23:22;;;;;;;29.15;16.98;;;5.20;99.90;;;;;;5051722;28;20037;-67
2023/01/29 12:25:48;;;;;;;;;;;5.20;99.90;;;;;;5051688;28;20374;-68
2023/01/29 12:28:45;;;;;;;32.65;17.63;;;5.10;99.90;;;;;;5050320;28;19928;-67
2023/01/29 12:31:30;;;;;;;28.38;16.10;;;5.10;99.90;;;;;;5051358;28;20037;-67
2023/01/29 12:34:18;;;;;;;29.70;17.40;;;5.10;99.90;;;;;;5051724;28;20037;-67
2023/01/29 12:37:12;;;;;;;30.45;17.08;;;5.10;99.90;;;;;;5049829;28;20041;-67
2023/01/29 12:39:38;;;;;;;32.33;17.58;;;5.20;99.90;;;;;;5052348;28;20041;-67
2023/01/29 12:42:19;;;;;;;32.25;18.40;;;5.10;99.90;;;;;;5049934;28;20051;-67
2023/01/29 12:44:50;;;;;;;34.47;18.05;;;5.10;99.90;;;;;;5048995;28;20037;-68
2023/01/29 12:47:27;;;;;;;31.23;17.55;;;5.00;99.90;;;;;;5050768;28;20493;-67
2023/01/29 12:49:56;;;;;;;33.38;16.67;;;5.10;99.90;;;;;;5049801;28;20044;-68
2023/01/29 12:52:42;;;;;;;30.77;17.52;;;5.10;99.90;;;;;;5033107;28;20037;-67
2023/01/29 12:55:17;;;;;;;37.75;17.13;;;5.10;99.90;;;;;;5050136;28;20033;-68
2023/01/29 12:57:43;;;;;;;33.00;17.63;;;5.10;99.90;;;;;;5049731;28;20033;-67
2023/01/29 13:00:25;;;;;;;31.23;17.10;;;5.10;99.90;;;;;;5050836;28;20102;-67
2023/01/29 13:02:56;;;;;;;34.70;19.25;;;5.10;99.90;;;;;;5032991;28;20037;-67
2023/01/29 13:05:28;;;;;;;35.83;18.23;;;5.00;99.90;;;;;;5050172;28;20130;-67
2023/01/29 13:08:04;;;;;;;36.67;18.08;;;5.00;99.90;;;;;;5033093;28;20809;-68
2023/01/29 13:10:41;;;;;;;31.75;17.73;;;5.00;99.90;;;;;;5050793;28;20052;-67
2023/01/29 13:13:30;;;;;;;36.17;18.58;;;5.00;99.90;;;;;;5049650;28;20049;-67
2023/01/29 13:15:58;;;;;;;33.00;17.30;;;5.00;99.90;;;;;;5049884;28;20087;-67
2023/01/29 13:18:41;;;;;;;31.55;16.88;;;5.00;99.90;;;;;;5050887;28;20076;-67
2023/01/29 13:21:19;;;;;;;33.55;16.90;;;5.00;99.90;;;;;;5050786;28;20617;-67
2023/01/29 13:23:50;;;;;;;29.85;17.10;;;5.00;99.90;;;;;;5050244;28;20135;-66
2023/01/29 13:26:20;;;;;;;35.13;17.13;;;4.90;99.90;;;;;;5050509;28;20041;-67